Zeynalabdin Tagiyev — 9HLD8 — position and weather

sailwx.info

Track history (hours):
 
Tides and Currents Weather Stations Pressure Air Temp Water Temp Dewpoint Dewpoint Depression Visibility Wind Speed Wind Dir Waves Ship Positions

Zeynalabdin Tagiyev

Last reported at 2014-Aug-25 01:33 UTC. Time now 2014-Sep-01 07:45 UTC.
Position N 46°41' E 036°43'.

Length 140 m; draft 3.6 m.

Type: Cargo ship. MMSI: 256107000.

Date/timePositionNaut miles runAvg speedWind from/ knotsBaromVisibWave heightAir tempDewpointWater temp
2014-Aug-25 01:33N 46°41' E 036°43'  
2014-Aug-18 15:06N 41°28' E 029°31'3 6.3
2014-Aug-18 14:33N 41°26' E 029°28'33 6.5
2014-Aug-18 09:26N 41°00' E 028°60'6 5.8
2014-Aug-18 08:26N 40°55' E 028°56'0 0.0
2014-Aug-17 11:31N 40°55' E 028°56'96 9.5
2014-Aug-17 01:26N 40°28' E 026°54'124 8.9
2014-Aug-16 11:31N 38°36' E 025°46'20 9.9
2014-Aug-16 09:30N 38°16' E 025°46'3110.5
2014-Aug-16 06:33N 37°46' E 025°53'1010.6
2014-Aug-16 05:33N 37°36' E 025°55'1110.5
2014-Aug-16 04:33N 37°26' E 026°01'1111.0
2014-Aug-16 03:33N 37°19' E 026°12'1110.7
2014-Aug-16 02:33N 37°12' E 026°22'1110.5
2014-Aug-16 01:33N 37°06' E 026°32'1010.5
2014-Aug-16 00:33N 36°58' E 026°41'1010.0
2014-Aug-15 23:33N 36°50' E 026°49'1210.3
2014-Aug-15 22:25N 36°40' E 026°55'9 9.6
2014-Aug-15 21:27N 36°33' E 027°03'2010.2
2014-Aug-15 19:30N 36°31' E 027°28'1010.1
2014-Aug-15 18:33N 36°31' E 027°40'1210.6
2014-Aug-15 17:27N 36°30' E 027°54'1010.6
2014-Aug-15 16:31N 36°30' E 028°06'11310.1
2014-Aug-15 05:22N 35°41' E 030°12'  
Track history (hours):
 
Tides and Currents Weather Stations Pressure Air Temp Water Temp Dewpoint Dewpoint Depression Visibility Wind Speed Wind Dir Waves Ship Positions

Zeynalabdin Tagiyev

Last reported at 2014-Aug-25 01:33 UTC. Time now 2014-Sep-01 07:45 UTC.
Position N 46°41' E 036°43'.

Length 140 m; draft 3.6 m.

Type: Cargo ship. MMSI: 256107000.

Date/timePositionNaut miles runAvg speedWind from/ knotsBaromVisibWave heightAir tempDewpointWater temp
2014-Aug-25 01:33N 46°41' E 036°43'  
2014-Aug-18 15:06N 41°28' E 029°31'3 6.3
2014-Aug-18 14:33N 41°26' E 029°28'33 6.5
2014-Aug-18 09:26N 41°00' E 028°60'6 5.8
2014-Aug-18 08:26N 40°55' E 028°56'0 0.0
2014-Aug-17 11:31N 40°55' E 028°56'96 9.5
2014-Aug-17 01:26N 40°28' E 026°54'124 8.9
2014-Aug-16 11:31N 38°36' E 025°46'20 9.9
2014-Aug-16 09:30N 38°16' E 025°46'3110.5
2014-Aug-16 06:33N 37°46' E 025°53'1010.6
2014-Aug-16 05:33N 37°36' E 025°55'1110.5
2014-Aug-16 04:33N 37°26' E 026°01'1111.0
2014-Aug-16 03:33N 37°19' E 026°12'1110.7
2014-Aug-16 02:33N 37°12' E 026°22'1110.5
2014-Aug-16 01:33N 37°06' E 026°32'1010.5
2014-Aug-16 00:33N 36°58' E 026°41'1010.0
2014-Aug-15 23:33N 36°50' E 026°49'1210.3
2014-Aug-15 22:25N 36°40' E 026°55'9 9.6
2014-Aug-15 21:27N 36°33' E 027°03'2010.2
2014-Aug-15 19:30N 36°31' E 027°28'1010.1
2014-Aug-15 18:33N 36°31' E 027°40'1210.6
2014-Aug-15 17:27N 36°30' E 027°54'1010.6
2014-Aug-15 16:31N 36°30' E 028°06'11310.1
2014-Aug-15 05:22N 35°41' E 030°12'  

Dump ship's entire track history